Terminal Aerodrome Forecast
Issued by NWS San Angelo, TX

Home | Current Version | Previous Version | Text Only | Print | Product List | Glossary On
Versions: 1 2 3 4 5 6 7 8 9 10 11 12 13 14 15 16
646
FTUS44 KSJT 241854 AAB
TAFSJT
TAF AMD
KSJT 241854Z 2419/2518 22018G28KT P6SM SCT250
     FM242300 27011KT P6SM SCT250
     FM250400 28008KT P6SM SCT250
     FM251700 27012KT P6SM SCT250=

USA.gov is the U.S. government's official web portal to all federal, state and local government web resources and services.